Terminal Aerodrome Forecast
Issued by NWS Northern Indiana

Home | Current Version | Previous Version | Text Only | Print | Product List | Glossary Off
Versions: 1 2 3 4 5 6 7 8 9 10 11 12 13 14 15

000
FTUS43 KIWX 010500
TAFFWA
TAF
KFWA 010520Z 0106/0206 07005KT P6SM BKN025
     FM010700 07003KT 4SM BR BKN015
     FM011400 09005KT P6SM SCT015 BKN025
     FM011600 11006KT P6SM SCT030=

USA.gov is the U.S. government's official web portal to all federal, state and local government web resources and services.